sensor_id;sensor_type;location;lat;lon;timestamp;P1;durP1;ratioP1;P2;durP2;ratioP2
8938;SDS011;4504;48.810;9.172;2023-05-10T00:00:04;117.93;;;3.90;;
8938;SDS011;4504;48.810;9.172;2023-05-10T00:02:38;118.13;;;4.00;;
8938;SDS011;4504;48.810;9.172;2023-05-10T00:05:05;118.13;;;4.00;;
8938;SDS011;4504;48.810;9.172;2023-05-10T00:07:33;117.32;;;3.70;;
8938;SDS011;4504;48.810;9.172;2023-05-10T00:10:01;117.93;;;3.80;;
8938;SDS011;4504;48.810;9.172;2023-05-10T00:12:28;119.22;;;3.90;;
8938;SDS011;4504;48.810;9.172;2023-05-10T00:14:55;118.72;;;3.80;;
8938;SDS011;4504;48.810;9.172;2023-05-10T00:17:22;118.63;;;3.92;;
8938;SDS011;4504;48.810;9.172;2023-05-10T00:19:49;119.60;;;4.10;;
8938;SDS011;4504;48.810;9.172;2023-05-10T00:22:16;119.65;;;4.00;;
8938;SDS011;4504;48.810;9.172;2023-05-10T00:24:43;118.05;;;3.80;;
8938;SDS011;4504;48.810;9.172;2023-05-10T00:27:11;118.95;;;4.10;;
8938;SDS011;4504;48.810;9.172;2023-05-10T00:29:38;119.47;;;4.10;;
8938;SDS011;4504;48.810;9.172;2023-05-10T00:32:05;118.68;;;3.85;;
8938;SDS011;4504;48.810;9.172;2023-05-10T00:34:32;118.85;;;3.70;;
8938;SDS011;4504;48.810;9.172;2023-05-10T00:36:59;119.05;;;3.70;;
8938;SDS011;4504;48.810;9.172;2023-05-10T00:39:26;119.03;;;4.05;;
8938;SDS011;4504;48.810;9.172;2023-05-10T00:41:53;117.38;;;3.70;;
8938;SDS011;4504;48.810;9.172;2023-05-10T00:44:22;122.43;;;3.90;;
8938;SDS011;4504;48.810;9.172;2023-05-10T00:46:49;118.22;;;4.15;;
8938;SDS011;4504;48.810;9.172;2023-05-10T00:49:16;119.22;;;3.55;;
8938;SDS011;4504;48.810;9.172;2023-05-10T00:51:45;118.90;;;3.47;;
8938;SDS011;4504;48.810;9.172;2023-05-10T00:54:12;118.95;;;3.70;;
8938;SDS011;4504;48.810;9.172;2023-05-10T00:56:41;118.78;;;3.60;;
8938;SDS011;4504;48.810;9.172;2023-05-10T00:59:08;119.43;;;3.60;;
8938;SDS011;4504;48.810;9.172;2023-05-10T01:01:37;118.43;;;3.50;;
8938;SDS011;4504;48.810;9.172;2023-05-10T01:04:04;119.45;;;4.00;;
8938;SDS011;4504;48.810;9.172;2023-05-10T01:06:31;118.25;;;3.58;;
8938;SDS011;4504;48.810;9.172;2023-05-10T01:08:58;117.97;;;3.67;;
8938;SDS011;4504;48.810;9.172;2023-05-10T01:11:25;118.22;;;3.65;;
8938;SDS011;4504;48.810;9.172;2023-05-10T01:13:54;119.72;;;3.80;;
8938;SDS011;4504;48.810;9.172;2023-05-10T01:16:22;118.93;;;3.72;;
8938;SDS011;4504;48.810;9.172;2023-05-10T01:18:52;118.65;;;4.65;;
8938;SDS011;4504;48.810;9.172;2023-05-10T01:21:22;119.15;;;3.75;;
8938;SDS011;4504;48.810;9.172;2023-05-10T01:30:07;118.50;;;3.75;;
8938;SDS011;4504;48.810;9.172;2023-05-10T01:32:49;117.93;;;3.90;;
8938;SDS011;4504;48.810;9.172;2023-05-10T01:35:22;119.55;;;4.25;;
8938;SDS011;4504;48.810;9.172;2023-05-10T01:37:59;119.00;;;3.70;;
8938;SDS011;4504;48.810;9.172;2023-05-10T01:40:35;118.32;;;3.80;;
8938;SDS011;4504;48.810;9.172;2023-05-10T01:43:07;118.22;;;3.80;;
8938;SDS011;4504;48.810;9.172;2023-05-10T01:45:41;119.13;;;4.07;;
8938;SDS011;4504;48.810;9.172;2023-05-10T01:48:15;118.18;;;3.60;;
8938;SDS011;4504;48.810;9.172;2023-05-10T01:50:45;120.75;;;4.10;;
8938;SDS011;4504;48.810;9.172;2023-05-10T01:53:14;117.93;;;3.60;;
8938;SDS011;4504;48.810;9.172;2023-05-10T01:55:46;118.75;;;3.80;;
8938;SDS011;4504;48.810;9.172;2023-05-10T01:58:17;118.78;;;3.72;;
8938;SDS011;4504;48.810;9.172;2023-05-10T02:00:47;118.32;;;3.53;;
8938;SDS011;4504;48.810;9.172;2023-05-10T02:03:17;117.90;;;4.03;;
8938;SDS011;4504;48.810;9.172;2023-05-10T02:05:46;117.43;;;3.83;;
8938;SDS011;4504;48.810;9.172;2023-05-10T02:08:15;117.32;;;3.47;;
8938;SDS011;4504;48.810;9.172;2023-05-10T02:10:44;118.38;;;3.70;;
8938;SDS011;4504;48.810;9.172;2023-05-10T02:13:12;117.45;;;3.47;;
8938;SDS011;4504;48.810;9.172;2023-05-10T02:15:41;117.43;;;3.53;;
8938;SDS011;4504;48.810;9.172;2023-05-10T02:18:10;118.22;;;4.20;;
8938;SDS011;4504;48.810;9.172;2023-05-10T02:20:40;118.53;;;3.78;;
8938;SDS011;4504;48.810;9.172;2023-05-10T02:23:08;116.40;;;3.47;;
8938;SDS011;4504;48.810;9.172;2023-05-10T02:25:36;118.38;;;3.75;;
8938;SDS011;4504;48.810;9.172;2023-05-10T02:28:04;130.88;;;3.83;;
8938;SDS011;4504;48.810;9.172;2023-05-10T02:30:34;118.35;;;3.90;;
8938;SDS011;4504;48.810;9.172;2023-05-10T02:33:02;117.63;;;3.80;;
8938;SDS011;4504;48.810;9.172;2023-05-10T02:35:32;117.93;;;3.60;;
8938;SDS011;4504;48.810;9.172;2023-05-10T02:38:02;117.78;;;3.70;;
8938;SDS011;4504;48.810;9.172;2023-05-10T02:40:30;118.18;;;3.70;;
8938;SDS011;4504;48.810;9.172;2023-05-10T02:42:59;118.43;;;3.55;;
8938;SDS011;4504;48.810;9.172;2023-05-10T02:45:30;117.25;;;3.58;;
8938;SDS011;4504;48.810;9.172;2023-05-10T02:47:58;117.80;;;3.53;;
8938;SDS011;4504;48.810;9.172;2023-05-10T02:50:27;118.30;;;3.45;;
8938;SDS011;4504;48.810;9.172;2023-05-10T02:52:59;117.40;;;3.40;;
8938;SDS011;4504;48.810;9.172;2023-05-10T02:55:31;117.18;;;3.55;;
8938;SDS011;4504;48.810;9.172;2023-05-10T02:58:03;117.18;;;3.60;;
8938;SDS011;4504;48.810;9.172;2023-05-10T03:00:30;118.40;;;3.30;;
8938;SDS011;4504;48.810;9.172;2023-05-10T03:02:57;116.85;;;3.40;;
8938;SDS011;4504;48.810;9.172;2023-05-10T03:05:26;117.45;;;3.40;;
8938;SDS011;4504;48.810;9.172;2023-05-10T03:07:54;117.53;;;3.47;;
8938;SDS011;4504;48.810;9.172;2023-05-10T03:10:25;117.45;;;3.50;;
8938;SDS011;4504;48.810;9.172;2023-05-10T03:12:57;117.53;;;3.50;;
8938;SDS011;4504;48.810;9.172;2023-05-10T03:15:37;117.88;;;3.50;;
8938;SDS011;4504;48.810;9.172;2023-05-10T03:18:15;117.25;;;3.50;;
8938;SDS011;4504;48.810;9.172;2023-05-10T03:20:46;120.38;;;3.80;;
8938;SDS011;4504;48.810;9.172;2023-05-10T03:23:18;118.43;;;3.90;;
8938;SDS011;4504;48.810;9.172;2023-05-10T03:25:50;118.88;;;3.90;;
8938;SDS011;4504;48.810;9.172;2023-05-10T03:28:18;118.63;;;3.60;;
8938;SDS011;4504;48.810;9.172;2023-05-10T03:30:47;118.53;;;3.60;;
8938;SDS011;4504;48.810;9.172;2023-05-10T03:33:15;116.90;;;3.60;;
8938;SDS011;4504;48.810;9.172;2023-05-10T03:35:44;118.03;;;3.83;;
8938;SDS011;4504;48.810;9.172;2023-05-10T03:38:12;119.03;;;3.80;;
8938;SDS011;4504;48.810;9.172;2023-05-10T03:40:39;116.65;;;3.90;;
8938;SDS011;4504;48.810;9.172;2023-05-10T03:43:08;117.72;;;3.55;;
8938;SDS011;4504;48.810;9.172;2023-05-10T03:45:35;117.80;;;3.60;;
8938;SDS011;4504;48.810;9.172;2023-05-10T03:48:02;117.03;;;3.70;;
8938;SDS011;4504;48.810;9.172;2023-05-10T03:50:29;118.68;;;3.80;;
8938;SDS011;4504;48.810;9.172;2023-05-10T03:52:56;118.47;;;3.88;;
8938;SDS011;4504;48.810;9.172;2023-05-10T03:55:23;118.05;;;3.70;;
8938;SDS011;4504;48.810;9.172;2023-05-10T03:57:50;118.28;;;3.70;;
8938;SDS011;4504;48.810;9.172;2023-05-10T04:00:22;117.93;;;3.50;;
8938;SDS011;4504;48.810;9.172;2023-05-10T04:02:52;118.32;;;3.60;;
8938;SDS011;4504;48.810;9.172;2023-05-10T04:05:19;117.72;;;4.10;;
8938;SDS011;4504;48.810;9.172;2023-05-10T04:07:46;118.43;;;3.60;;
8938;SDS011;4504;48.810;9.172;2023-05-10T04:10:15;125.93;;;3.95;;
8938;SDS011;4504;48.810;9.172;2023-05-10T04:12:42;117.97;;;3.63;;
8938;SDS011;4504;48.810;9.172;2023-05-10T04:15:10;117.13;;;3.60;;
8938;SDS011;4504;48.810;9.172;2023-05-10T04:17:38;118.18;;;3.63;;
8938;SDS011;4504;48.810;9.172;2023-05-10T04:20:05;116.72;;;3.70;;
8938;SDS011;4504;48.810;9.172;2023-05-10T04:22:33;118.18;;;3.95;;
8938;SDS011;4504;48.810;9.172;2023-05-10T04:25:00;116.93;;;3.53;;
8938;SDS011;4504;48.810;9.172;2023-05-10T04:27:27;139.40;;;5.45;;
8938;SDS011;4504;48.810;9.172;2023-05-10T04:29:54;116.43;;;3.63;;
8938;SDS011;4504;48.810;9.172;2023-05-10T04:32:21;117.68;;;3.60;;
8938;SDS011;4504;48.810;9.172;2023-05-10T04:34:49;117.60;;;3.75;;
8938;SDS011;4504;48.810;9.172;2023-05-10T04:37:17;125.90;;;3.65;;
8938;SDS011;4504;48.810;9.172;2023-05-10T04:39:43;118.28;;;3.60;;
8938;SDS011;4504;48.810;9.172;2023-05-10T04:42:10;118.25;;;3.80;;
8938;SDS011;4504;48.810;9.172;2023-05-10T04:44:40;119.07;;;4.03;;
8938;SDS011;4504;48.810;9.172;2023-05-10T04:47:06;118.32;;;3.92;;
8938;SDS011;4504;48.810;9.172;2023-05-10T04:49:33;118.45;;;3.95;;
8938;SDS011;4504;48.810;9.172;2023-05-10T04:52:02;127.05;;;7.05;;
8938;SDS011;4504;48.810;9.172;2023-05-10T04:54:29;118.68;;;3.90;;
8938;SDS011;4504;48.810;9.172;2023-05-10T04:56:56;118.22;;;3.90;;
8938;SDS011;4504;48.810;9.172;2023-05-10T04:59:22;118.35;;;3.65;;
8938;SDS011;4504;48.810;9.172;2023-05-10T05:01:49;116.88;;;3.67;;
8938;SDS011;4504;48.810;9.172;2023-05-10T05:04:16;118.55;;;3.45;;
8938;SDS011;4504;48.810;9.172;2023-05-10T05:06:43;118.47;;;3.60;;
8938;SDS011;4504;48.810;9.172;2023-05-10T05:09:12;117.68;;;3.70;;
8938;SDS011;4504;48.810;9.172;2023-05-10T05:11:38;117.00;;;3.83;;
8938;SDS011;4504;48.810;9.172;2023-05-10T05:14:05;118.45;;;3.88;;
8938;SDS011;4504;48.810;9.172;2023-05-10T05:16:32;116.75;;;4.05;;
8938;SDS011;4504;48.810;9.172;2023-05-10T05:18:59;117.38;;;3.30;;
8938;SDS011;4504;48.810;9.172;2023-05-10T05:21:27;117.03;;;3.38;;
8938;SDS011;4504;48.810;9.172;2023-05-10T05:23:54;117.93;;;3.65;;
8938;SDS011;4504;48.810;9.172;2023-05-10T05:26:22;115.65;;;3.40;;
8938;SDS011;4504;48.810;9.172;2023-05-10T05:28:49;124.75;;;3.95;;
8938;SDS011;4504;48.810;9.172;2023-05-10T05:31:19;115.72;;;3.47;;
8938;SDS011;4504;48.810;9.172;2023-05-10T05:33:46;119.93;;;3.88;;
8938;SDS011;4504;48.810;9.172;2023-05-10T05:36:13;118.65;;;3.60;;
8938;SDS011;4504;48.810;9.172;2023-05-10T05:38:40;115.72;;;3.58;;
8938;SDS011;4504;48.810;9.172;2023-05-10T05:41:07;116.22;;;3.50;;
8938;SDS011;4504;48.810;9.172;2023-05-10T05:43:36;116.57;;;3.65;;
8938;SDS011;4504;48.810;9.172;2023-05-10T05:46:03;117.57;;;4.15;;
8938;SDS011;4504;48.810;9.172;2023-05-10T05:48:30;117.97;;;3.88;;
8938;SDS011;4504;48.810;9.172;2023-05-10T05:50:57;116.43;;;3.40;;
8938;SDS011;4504;48.810;9.172;2023-05-10T05:53:24;116.80;;;3.60;;
8938;SDS011;4504;48.810;9.172;2023-05-10T05:55:51;120.97;;;3.80;;
8938;SDS011;4504;48.810;9.172;2023-05-10T05:58:19;117.53;;;3.60;;
8938;SDS011;4504;48.810;9.172;2023-05-10T06:00:47;116.72;;;3.47;;
8938;SDS011;4504;48.810;9.172;2023-05-10T06:03:15;116.38;;;3.72;;
8938;SDS011;4504;48.810;9.172;2023-05-10T06:05:42;117.63;;;3.83;;
8938;SDS011;4504;48.810;9.172;2023-05-10T06:08:09;116.88;;;3.35;;
8938;SDS011;4504;48.810;9.172;2023-05-10T06:10:36;115.22;;;3.60;;
8938;SDS011;4504;48.810;9.172;2023-05-10T06:13:03;115.72;;;3.35;;
8938;SDS011;4504;48.810;9.172;2023-05-10T06:15:29;117.28;;;3.63;;
8938;SDS011;4504;48.810;9.172;2023-05-10T06:17:59;117.43;;;3.75;;
8938;SDS011;4504;48.810;9.172;2023-05-10T06:20:26;116.93;;;3.65;;
8938;SDS011;4504;48.810;9.172;2023-05-10T06:22:53;116.22;;;3.30;;
8938;SDS011;4504;48.810;9.172;2023-05-10T06:25:19;117.53;;;3.40;;
8938;SDS011;4504;48.810;9.172;2023-05-10T06:27:46;117.00;;;3.70;;
8938;SDS011;4504;48.810;9.172;2023-05-10T06:30:13;116.13;;;3.50;;
8938;SDS011;4504;48.810;9.172;2023-05-10T06:32:41;117.03;;;3.70;;
8938;SDS011;4504;48.810;9.172;2023-05-10T06:35:10;115.88;;;3.58;;
8938;SDS011;4504;48.810;9.172;2023-05-10T06:37:37;121.13;;;3.75;;
8938;SDS011;4504;48.810;9.172;2023-05-10T06:40:05;115.97;;;3.50;;
8938;SDS011;4504;48.810;9.172;2023-05-10T06:42:34;116.78;;;3.40;;
8938;SDS011;4504;48.810;9.172;2023-05-10T06:45:02;115.82;;;3.45;;
8938;SDS011;4504;48.810;9.172;2023-05-10T06:47:30;119.05;;;3.90;;
8938;SDS011;4504;48.810;9.172;2023-05-10T06:49:57;115.85;;;3.10;;
8938;SDS011;4504;48.810;9.172;2023-05-10T06:52:26;115.93;;;3.33;;
8938;SDS011;4504;48.810;9.172;2023-05-10T06:54:53;116.18;;;3.45;;
8938;SDS011;4504;48.810;9.172;2023-05-10T06:57:20;116.47;;;3.50;;
8938;SDS011;4504;48.810;9.172;2023-05-10T06:59:47;115.75;;;3.78;;
8938;SDS011;4504;48.810;9.172;2023-05-10T07:02:14;117.00;;;3.35;;
8938;SDS011;4504;48.810;9.172;2023-05-10T07:04:41;116.57;;;3.30;;
8938;SDS011;4504;48.810;9.172;2023-05-10T07:07:08;116.25;;;3.70;;
8938;SDS011;4504;48.810;9.172;2023-05-10T07:09:36;118.28;;;3.40;;
8938;SDS011;4504;48.810;9.172;2023-05-10T07:12:04;114.63;;;3.40;;
8938;SDS011;4504;48.810;9.172;2023-05-10T07:14:31;117.72;;;3.25;;
8938;SDS011;4504;48.810;9.172;2023-05-10T07:16:58;114.15;;;3.30;;
8938;SDS011;4504;48.810;9.172;2023-05-10T07:19:25;117.72;;;3.70;;
8938;SDS011;4504;48.810;9.172;2023-05-10T07:21:52;114.93;;;3.47;;
8938;SDS011;4504;48.810;9.172;2023-05-10T07:24:19;116.78;;;4.07;;
8938;SDS011;4504;48.810;9.172;2023-05-10T07:26:47;116.55;;;3.78;;
8938;SDS011;4504;48.810;9.172;2023-05-10T07:29:14;115.47;;;3.70;;
8938;SDS011;4504;48.810;9.172;2023-05-10T07:31:41;116.78;;;3.70;;
8938;SDS011;4504;48.810;9.172;2023-05-10T07:34:08;115.82;;;3.40;;
8938;SDS011;4504;48.810;9.172;2023-05-10T07:36:35;115.97;;;3.38;;
8938;SDS011;4504;48.810;9.172;2023-05-10T07:39:02;117.43;;;3.80;;
8938;SDS011;4504;48.810;9.172;2023-05-10T07:41:29;115.85;;;3.42;;
8938;SDS011;4504;48.810;9.172;2023-05-10T07:43:57;115.38;;;3.25;;
8938;SDS011;4504;48.810;9.172;2023-05-10T07:46:24;115.28;;;3.67;;
8938;SDS011;4504;48.810;9.172;2023-05-10T07:48:51;115.40;;;3.30;;
8938;SDS011;4504;48.810;9.172;2023-05-10T07:51:18;115.63;;;3.60;;
8938;SDS011;4504;48.810;9.172;2023-05-10T07:53:45;116.88;;;3.60;;
8938;SDS011;4504;48.810;9.172;2023-05-10T07:56:22;114.82;;;3.50;;
8938;SDS011;4504;48.810;9.172;2023-05-10T07:58:52;114.38;;;3.60;;
8938;SDS011;4504;48.810;9.172;2023-05-10T08:01:21;114.32;;;3.35;;
8938;SDS011;4504;48.810;9.172;2023-05-10T08:03:49;115.57;;;3.35;;
8938;SDS011;4504;48.810;9.172;2023-05-10T08:06:18;114.75;;;3.10;;
8938;SDS011;4504;48.810;9.172;2023-05-10T08:08:46;113.95;;;3.08;;
8938;SDS011;4504;48.810;9.172;2023-05-10T08:11:15;114.38;;;3.20;;
8938;SDS011;4504;48.810;9.172;2023-05-10T08:13:42;113.72;;;3.05;;
8938;SDS011;4504;48.810;9.172;2023-05-10T08:16:09;115.07;;;3.42;;
8938;SDS011;4504;48.810;9.172;2023-05-10T08:18:38;113.78;;;3.00;;
8938;SDS011;4504;48.810;9.172;2023-05-10T08:21:05;114.38;;;2.90;;
8938;SDS011;4504;48.810;9.172;2023-05-10T08:23:33;114.18;;;3.10;;
8938;SDS011;4504;48.810;9.172;2023-05-10T08:26:00;114.43;;;3.30;;
8938;SDS011;4504;48.810;9.172;2023-05-10T08:28:27;117.03;;;3.40;;
8938;SDS011;4504;48.810;9.172;2023-05-10T08:30:54;115.13;;;3.70;;
8938;SDS011;4504;48.810;9.172;2023-05-10T08:33:22;115.65;;;3.20;;
8938;SDS011;4504;48.810;9.172;2023-05-10T08:35:50;114.32;;;2.95;;
8938;SDS011;4504;48.810;9.172;2023-05-10T08:38:17;114.82;;;3.20;;
8938;SDS011;4504;48.810;9.172;2023-05-10T08:40:44;114.78;;;2.90;;
8938;SDS011;4504;48.810;9.172;2023-05-10T08:43:12;114.82;;;3.20;;
8938;SDS011;4504;48.810;9.172;2023-05-10T08:45:41;115.22;;;3.20;;
8938;SDS011;4504;48.810;9.172;2023-05-10T08:48:10;113.65;;;3.30;;
8938;SDS011;4504;48.810;9.172;2023-05-10T08:50:38;114.32;;;3.13;;
8938;SDS011;4504;48.810;9.172;2023-05-10T08:53:09;115.53;;;3.20;;
8938;SDS011;4504;48.810;9.172;2023-05-10T08:55:37;115.22;;;3.50;;
8938;SDS011;4504;48.810;9.172;2023-05-10T08:58:05;114.63;;;3.10;;
8938;SDS011;4504;48.810;9.172;2023-05-10T09:00:32;115.03;;;2.90;;
8938;SDS011;4504;48.810;9.172;2023-05-10T09:03:01;114.70;;;3.05;;
8938;SDS011;4504;48.810;9.172;2023-05-10T09:05:29;115.38;;;3.20;;
8938;SDS011;4504;48.810;9.172;2023-05-10T09:07:56;114.72;;;3.10;;
8938;SDS011;4504;48.810;9.172;2023-05-10T09:10:25;114.35;;;3.28;;
8938;SDS011;4504;48.810;9.172;2023-05-10T09:12:52;115.57;;;3.20;;
8938;SDS011;4504;48.810;9.172;2023-05-10T09:15:22;115.00;;;3.50;;
8938;SDS011;4504;48.810;9.172;2023-05-10T09:17:49;115.95;;;3.30;;
8938;SDS011;4504;48.810;9.172;2023-05-10T09:20:16;113.53;;;3.08;;
8938;SDS011;4504;48.810;9.172;2023-05-10T09:22:43;114.43;;;3.00;;
8938;SDS011;4504;48.810;9.172;2023-05-10T09:25:11;112.80;;;2.90;;
8938;SDS011;4504;48.810;9.172;2023-05-10T09:27:41;113.93;;;3.00;;
8938;SDS011;4504;48.810;9.172;2023-05-10T09:30:14;114.23;;;3.43;;
8938;SDS011;4504;48.810;9.172;2023-05-10T09:32:43;113.20;;;3.40;;
8938;SDS011;4504;48.810;9.172;2023-05-10T09:35:11;113.07;;;3.00;;
8938;SDS011;4504;48.810;9.172;2023-05-10T09:37:39;114.18;;;3.00;;
8938;SDS011;4504;48.810;9.172;2023-05-10T09:40:08;114.07;;;3.00;;
8938;SDS011;4504;48.810;9.172;2023-05-10T09:42:38;114.63;;;3.20;;
8938;SDS011;4504;48.810;9.172;2023-05-10T09:45:07;116.28;;;4.00;;
8938;SDS011;4504;48.810;9.172;2023-05-10T09:47:35;113.22;;;3.20;;
8938;SDS011;4504;48.810;9.172;2023-05-10T09:50:02;112.20;;;3.08;;
8938;SDS011;4504;48.810;9.172;2023-05-10T09:52:35;112.97;;;2.97;;
8938;SDS011;4504;48.810;9.172;2023-05-10T09:55:13;112.00;;;2.80;;
8938;SDS011;4504;48.810;9.172;2023-05-10T09:57:41;113.93;;;3.00;;
8938;SDS011;4504;48.810;9.172;2023-05-10T10:00:09;113.07;;;2.80;;
8938;SDS011;4504;48.810;9.172;2023-05-10T10:02:44;112.78;;;3.00;;
8938;SDS011;4504;48.810;9.172;2023-05-10T10:05:12;112.87;;;3.00;;
8938;SDS011;4504;48.810;9.172;2023-05-10T10:07:40;113.37;;;3.00;;
8938;SDS011;4504;48.810;9.172;2023-05-10T10:10:07;112.03;;;3.07;;
8938;SDS011;4504;48.810;9.172;2023-05-10T10:12:37;113.03;;;3.20;;
8938;SDS011;4504;48.810;9.172;2023-05-10T10:15:05;112.77;;;2.80;;
8938;SDS011;4504;48.810;9.172;2023-05-10T10:17:35;113.22;;;3.00;;
8938;SDS011;4504;48.810;9.172;2023-05-10T10:20:04;112.72;;;2.80;;
8938;SDS011;4504;48.810;9.172;2023-05-10T10:22:32;113.07;;;2.80;;
8938;SDS011;4504;48.810;9.172;2023-05-10T10:25:00;113.18;;;2.95;;
8938;SDS011;4504;48.810;9.172;2023-05-10T10:27:28;112.07;;;2.97;;
8938;SDS011;4504;48.810;9.172;2023-05-10T10:30:04;111.90;;;3.00;;
8938;SDS011;4504;48.810;9.172;2023-05-10T10:32:46;112.87;;;2.67;;
8938;SDS011;4504;48.810;9.172;2023-05-10T10:35:32;114.20;;;3.00;;
8938;SDS011;4504;48.810;9.172;2023-05-10T10:38:01;111.23;;;2.70;;
8938;SDS011;4504;48.810;9.172;2023-05-10T10:40:28;112.27;;;2.80;;
8938;SDS011;4504;48.810;9.172;2023-05-10T10:42:56;113.00;;;2.80;;
8938;SDS011;4504;48.810;9.172;2023-05-10T10:45:24;110.40;;;2.90;;
8938;SDS011;4504;48.810;9.172;2023-05-10T10:47:56;112.67;;;2.93;;
8938;SDS011;4504;48.810;9.172;2023-05-10T10:50:51;111.90;;;2.80;;
8938;SDS011;4504;48.810;9.172;2023-05-10T10:53:23;111.40;;;2.80;;
8938;SDS011;4504;48.810;9.172;2023-05-10T10:56:02;112.80;;;2.80;;
8938;SDS011;4504;48.810;9.172;2023-05-10T10:58:32;113.00;;;2.97;;
8938;SDS011;4504;48.810;9.172;2023-05-10T11:01:09;112.33;;;3.00;;
8938;SDS011;4504;48.810;9.172;2023-05-10T11:03:38;113.55;;;3.00;;
8938;SDS011;4504;48.810;9.172;2023-05-10T11:06:05;112.78;;;3.25;;
8938;SDS011;4504;48.810;9.172;2023-05-10T11:08:34;112.47;;;2.80;;
8938;SDS011;4504;48.810;9.172;2023-05-10T11:11:09;112.45;;;2.90;;
8938;SDS011;4504;48.810;9.172;2023-05-10T11:13:40;113.28;;;2.88;;
8938;SDS011;4504;48.810;9.172;2023-05-10T11:16:13;113.70;;;3.00;;
8938;SDS011;4504;48.810;9.172;2023-05-10T11:18:52;114.30;;;3.00;;
8938;SDS011;4504;48.810;9.172;2023-05-10T11:21:24;113.88;;;3.00;;
8938;SDS011;4504;48.810;9.172;2023-05-10T11:23:51;113.28;;;2.97;;
8938;SDS011;4504;48.810;9.172;2023-05-10T11:26:21;113.75;;;2.90;;
8938;SDS011;4504;48.810;9.172;2023-05-10T11:28:51;112.43;;;3.00;;
8938;SDS011;4504;48.810;9.172;2023-05-10T11:31:21;113.20;;;2.90;;
8938;SDS011;4504;48.810;9.172;2023-05-10T11:33:50;113.07;;;3.40;;
8938;SDS011;4504;48.810;9.172;2023-05-10T11:36:20;112.07;;;2.90;;
8938;SDS011;4504;48.810;9.172;2023-05-10T11:38:48;111.67;;;3.03;;
8938;SDS011;4504;48.810;9.172;2023-05-10T11:41:16;112.30;;;5.00;;
8938;SDS011;4504;48.810;9.172;2023-05-10T11:43:45;112.03;;;2.70;;
8938;SDS011;4504;48.810;9.172;2023-05-10T11:46:14;112.17;;;2.87;;
8938;SDS011;4504;48.810;9.172;2023-05-10T11:48:41;112.07;;;2.87;;
8938;SDS011;4504;48.810;9.172;2023-05-10T11:51:09;113.20;;;2.87;;
8938;SDS011;4504;48.810;9.172;2023-05-10T11:53:38;113.93;;;3.15;;
8938;SDS011;4504;48.810;9.172;2023-05-10T11:56:06;112.47;;;3.22;;
8938;SDS011;4504;48.810;9.172;2023-05-10T11:58:34;112.10;;;3.22;;
8938;SDS011;4504;48.810;9.172;2023-05-10T12:01:02;113.40;;;3.30;;
8938;SDS011;4504;48.810;9.172;2023-05-10T12:03:30;111.45;;;3.20;;
8938;SDS011;4504;48.810;9.172;2023-05-10T12:05:58;113.47;;;2.90;;
8938;SDS011;4504;48.810;9.172;2023-05-10T12:08:26;114.57;;;3.05;;
8938;SDS011;4504;48.810;9.172;2023-05-10T12:11:03;113.20;;;3.20;;
8938;SDS011;4504;48.810;9.172;2023-05-10T12:13:31;113.28;;;3.05;;
8938;SDS011;4504;48.810;9.172;2023-05-10T12:15:58;113.13;;;3.05;;
8938;SDS011;4504;48.810;9.172;2023-05-10T12:18:25;114.50;;;3.10;;
8938;SDS011;4504;48.810;9.172;2023-05-10T12:20:52;112.70;;;2.97;;
8938;SDS011;4504;48.810;9.172;2023-05-10T12:23:20;113.93;;;3.15;;
8938;SDS011;4504;48.810;9.172;2023-05-10T12:25:47;111.55;;;2.88;;
8938;SDS011;4504;48.810;9.172;2023-05-10T12:28:15;111.60;;;2.80;;
8938;SDS011;4504;48.810;9.172;2023-05-10T12:30:46;113.80;;;3.40;;
8938;SDS011;4504;48.810;9.172;2023-05-10T12:33:13;113.07;;;2.97;;
8938;SDS011;4504;48.810;9.172;2023-05-10T12:35:45;112.65;;;3.47;;
8938;SDS011;4504;48.810;9.172;2023-05-10T12:38:26;114.57;;;3.10;;
8938;SDS011;4504;48.810;9.172;2023-05-10T12:40:54;114.60;;;3.05;;
8938;SDS011;4504;48.810;9.172;2023-05-10T12:43:23;111.40;;;3.00;;
8938;SDS011;4504;48.810;9.172;2023-05-10T12:45:50;111.47;;;3.20;;
8938;SDS011;4504;48.810;9.172;2023-05-10T12:48:17;114.18;;;3.38;;
8938;SDS011;4504;48.810;9.172;2023-05-10T12:50:44;112.07;;;3.07;;
8938;SDS011;4504;48.810;9.172;2023-05-10T12:53:13;110.90;;;2.93;;
8938;SDS011;4504;48.810;9.172;2023-05-10T12:55:40;111.97;;;2.80;;
8938;SDS011;4504;48.810;9.172;2023-05-10T12:58:07;111.87;;;2.90;;
8938;SDS011;4504;48.810;9.172;2023-05-10T13:00:35;111.85;;;3.15;;
8938;SDS011;4504;48.810;9.172;2023-05-10T13:03:03;110.30;;;2.90;;
8938;SDS011;4504;48.810;9.172;2023-05-10T13:05:30;109.80;;;2.83;;
8938;SDS011;4504;48.810;9.172;2023-05-10T13:07:57;111.70;;;2.73;;
8938;SDS011;4504;48.810;9.172;2023-05-10T13:10:25;113.65;;;2.92;;
8938;SDS011;4504;48.810;9.172;2023-05-10T13:12:51;112.22;;;3.13;;
8938;SDS011;4504;48.810;9.172;2023-05-10T13:15:18;112.38;;;2.90;;
8938;SDS011;4504;48.810;9.172;2023-05-10T13:17:47;112.95;;;3.30;;
8938;SDS011;4504;48.810;9.172;2023-05-10T13:20:14;112.72;;;2.92;;
8938;SDS011;4504;48.810;9.172;2023-05-10T13:22:41;113.40;;;3.15;;
8938;SDS011;4504;48.810;9.172;2023-05-10T13:25:09;113.18;;;3.20;;
8938;SDS011;4504;48.810;9.172;2023-05-10T13:27:36;110.97;;;2.80;;
8938;SDS011;4504;48.810;9.172;2023-05-10T13:30:03;112.07;;;2.97;;
8938;SDS011;4504;48.810;9.172;2023-05-10T13:32:31;110.80;;;3.00;;
8938;SDS011;4504;48.810;9.172;2023-05-10T13:35:00;112.55;;;3.20;;
8938;SDS011;4504;48.810;9.172;2023-05-10T13:37:28;112.38;;;3.15;;
8938;SDS011;4504;48.810;9.172;2023-05-10T13:39:55;111.72;;;3.22;;
8938;SDS011;4504;48.810;9.172;2023-05-10T13:42:22;114.20;;;3.15;;
8938;SDS011;4504;48.810;9.172;2023-05-10T13:44:50;111.97;;;3.17;;
8938;SDS011;4504;48.810;9.172;2023-05-10T13:47:17;111.63;;;3.35;;
8938;SDS011;4504;48.810;9.172;2023-05-10T13:49:44;110.53;;;2.65;;
8938;SDS011;4504;48.810;9.172;2023-05-10T13:52:12;111.55;;;2.70;;
8938;SDS011;4504;48.810;9.172;2023-05-10T13:54:39;111.27;;;3.00;;
8938;SDS011;4504;48.810;9.172;2023-05-10T13:57:06;110.77;;;2.87;;
8938;SDS011;4504;48.810;9.172;2023-05-10T14:00:44;110.40;;;2.60;;
8938;SDS011;4504;48.810;9.172;2023-05-10T14:03:11;111.13;;;2.70;;
8938;SDS011;4504;48.810;9.172;2023-05-10T14:05:38;110.17;;;2.70;;
8938;SDS011;4504;48.810;9.172;2023-05-10T14:08:05;111.30;;;2.70;;
8938;SDS011;4504;48.810;9.172;2023-05-10T14:10:32;110.07;;;2.60;;
8938;SDS011;4504;48.810;9.172;2023-05-10T14:12:59;110.40;;;2.73;;
8938;SDS011;4504;48.810;9.172;2023-05-10T14:15:26;110.60;;;2.70;;
8938;SDS011;4504;48.810;9.172;2023-05-10T14:17:54;110.70;;;2.70;;
8938;SDS011;4504;48.810;9.172;2023-05-10T14:20:21;110.70;;;2.50;;
8938;SDS011;4504;48.810;9.172;2023-05-10T14:22:48;110.40;;;3.10;;
8938;SDS011;4504;48.810;9.172;2023-05-10T14:25:15;110.47;;;2.60;;
8938;SDS011;4504;48.810;9.172;2023-05-10T14:27:42;110.43;;;2.47;;
8938;SDS011;4504;48.810;9.172;2023-05-10T14:30:10;111.13;;;2.63;;
8938;SDS011;4504;48.810;9.172;2023-05-10T14:32:37;111.37;;;2.90;;
8938;SDS011;4504;48.810;9.172;2023-05-10T14:35:06;111.38;;;2.80;;
8938;SDS011;4504;48.810;9.172;2023-05-10T14:37:34;116.97;;;3.05;;
8938;SDS011;4504;48.810;9.172;2023-05-10T14:40:02;111.57;;;2.70;;
8938;SDS011;4504;48.810;9.172;2023-05-10T14:42:29;111.63;;;2.77;;
8938;SDS011;4504;48.810;9.172;2023-05-10T14:44:56;111.07;;;2.70;;
8938;SDS011;4504;48.810;9.172;2023-05-10T14:47:23;112.47;;;2.80;;
8938;SDS011;4504;48.810;9.172;2023-05-10T14:49:50;111.18;;;2.50;;
8938;SDS011;4504;48.810;9.172;2023-05-10T14:52:18;111.97;;;2.60;;
8938;SDS011;4504;48.810;9.172;2023-05-10T14:54:45;110.30;;;2.73;;
8938;SDS011;4504;48.810;9.172;2023-05-10T14:57:12;110.20;;;2.60;;
8938;SDS011;4504;48.810;9.172;2023-05-10T14:59:39;114.20;;;2.97;;
8938;SDS011;4504;48.810;9.172;2023-05-10T15:02:06;110.00;;;2.80;;